Hlavní strana
METAR-TAF:

METAR-TAF

Letiště :

Haugesund, Norsko

zeměpisná šířka: 59-21N, zeměpisná délka: 005-13E, výška: 2 m

Aktuální stav počasí

Zpráva byla vytvořena před 29 minutami, v 03:50 UTC
Jihojihovýchodní vítr 4 kt
Teplota 6°C
Vlhkost vzduchu 87%
Tlak 1040 hPa
Viditelnost 10 km a více

METAR: ENHD 180350Z AUTO 15004KT 9999 OVC014/// 06/04 Q1040

Čas: 05:19 (04:19 UTC)

Předpověď počasí

Zpráva byla vytvořena před 11 hodinami a 19 minutami, v 17:00 UTC
Předpověď platná od 17 v 18 UTC do 17 v 22 UTC
Jihovýchodní vítr 5 kt
Viditelnost: 9000 m
Skoro jasno ve výšce 1500 ft
Pravděpodobnost 30%
od 17 v 18 UTC do 17 v 22 UTC
Viditelnost: 1500 m
Oblačno až skoro zataženo ve výšce 400 ft
chuchvalce mlhy

TAF: ENHD 171700Z 1718/1722 14005KT 9000 FEW015 PROB30 1718/1722 1500 BCFG BKN004

Stav a předpovědi počasí z více než 4 000 letišť (zprávy METAR a TAF).

Červené a žluté tečky na mapě představují dostupné meteorologické stanice.

Když kurzor umístíte na tečku, zobrazí se název stanice.

Pak kliknutím zobrazíte stav a předpověď počasí.

Chcete-li změnit mapu, kliknutím na zelené tlačítko se znaménkem +mapu přiblížíte, kliknutím na zelené tlačítko se znaménkem – mapu oddálíte a kliknutím na zelené šipky přejdete na sousední mapy.


METAR-TAF: